Terminal Aerodrome Forecast
Issued by NWS

Current Version | Previous Version | Text Only | Print | Product List | Glossary On
Versions: 1 2 3 4 5 6 7 8 9 10 11 12 13 14 15
000
FTUS46 KEKA 251732
TAFUKI
TAF
KUKI 251732Z 2518/2618 14005KT P6SM SCT050 BKN150
     FM260100 VRB04KT P6SM SCT120
     FM260600 30004KT P6SM BKN015=

USA.gov is the U.S. government's official web portal to all federal, state and local government web resources and services.